Time;durP1;ratioP1;P1;durP2;ratioP2;P2;SDS_P1;SDS_P2;PMS_P1;PMS_P2;Temp;Humidity;BMP_temperature;BMP_pressure;BME280_temperature;BME280_humidity;BME280_pressure;Samples;Min_cycle;Max_cycle;Signal;HPM_P1;HPM_P2
2021/05/16 00:00:32;;;;;;;;;;;10.10;99.90;;;;;;5037567;28;19925;-77
2021/05/16 00:02:58;;;;;;;;;;;10.10;99.90;;;;;;5037665;28;19921;-77
2021/05/16 00:05:25;;;;;;;;;;;10.10;99.90;;;;;;5037443;28;20395;-78
2021/05/16 00:07:52;;;;;;;;;;;10.00;99.90;;;;;;5037451;28;19925;-77
2021/05/16 00:10:19;;;;;;;;;;;10.10;99.90;;;;;;5037270;28;19927;-77
2021/05/16 00:12:46;;;;;;;;;;;10.00;99.90;;;;;;5037116;28;19921;-78
2021/05/16 00:15:13;;;;;;;;;;;10.00;99.90;;;;;;5037101;28;20349;-77
2021/05/16 00:17:39;;;;;;;;;;;10.00;99.90;;;;;;5037574;28;19994;-77
2021/05/16 00:20:08;;;;;;;;;;;10.00;99.90;;;;;;5037001;28;19927;-77
2021/05/16 00:22:35;;;;;;;;;;;10.00;99.90;;;;;;5036992;28;19920;-77
2021/05/16 00:25:01;;;;;;;;;;;10.00;99.90;;;;;;5036880;28;19986;-77
2021/05/16 00:27:28;;;;;;;;;;;10.00;99.90;;;;;;5036974;28;20338;-77
2021/05/16 00:29:55;;;;;;;;;;;10.00;99.90;;;;;;5036634;28;19921;-77
2021/05/16 00:32:21;;;;;;;;;;;9.90;99.90;;;;;;5036536;28;19929;-77
2021/05/16 00:34:47;;;;;;;;;;;9.90;99.90;;;;;;5036716;28;20415;-77
2021/05/16 00:37:14;;;;;;;;;;;9.80;99.90;;;;;;5037294;28;20325;-76
2021/05/16 00:39:40;;;;;;;;;;;9.80;99.90;;;;;;5036656;28;20354;-76
2021/05/16 00:42:06;;;;;;;;;;;9.70;99.90;;;;;;5036599;28;20317;-76
2021/05/16 00:44:34;;;;;;;;;;;9.60;99.90;;;;;;5036845;28;19931;-76
2021/05/16 00:47:00;;;;;;;;;;;9.60;99.90;;;;;;5036502;28;19968;-76
2021/05/16 00:49:26;;;;;;;;;;;9.50;99.90;;;;;;5036824;28;19932;-76
2021/05/16 00:51:53;;;;;;;;;;;9.40;99.90;;;;;;5036771;28;19929;-76
2021/05/16 00:54:19;;;;;;;;;;;9.40;99.90;;;;;;5036560;28;19921;-76
2021/05/16 00:56:45;;;;;;;;;;;9.40;99.90;;;;;;5036359;28;19924;-76
2021/05/16 00:59:12;;;;;;;;;;;9.40;99.90;;;;;;5036104;28;19931;-76
2021/05/16 01:01:39;;;;;;;;;;;9.40;99.90;;;;;;5036251;28;19920;-76
2021/05/16 01:04:06;;;;;;;;;;;9.30;99.90;;;;;;5036155;28;19932;-76
2021/05/16 01:06:32;;;;;;;;;;;9.30;99.90;;;;;;5036394;28;19920;-75
2021/05/16 01:08:59;;;;;;;;;;;9.30;99.90;;;;;;5036079;28;19925;-76
2021/05/16 01:11:28;;;;;;;;;;;9.30;99.90;;;;;;5036031;28;19927;-76
2021/05/16 01:13:54;;;;;;;;;;;9.20;99.90;;;;;;5036223;28;19964;-76
2021/05/16 01:16:21;;;;;;;;;;;9.20;99.90;;;;;;5036179;28;19936;-76
2021/05/16 01:18:48;;;;;;;;;;;9.20;99.90;;;;;;5035959;28;19921;-76
2021/05/16 01:21:16;;;;;;;;;;;9.20;99.90;;;;;;5027738;28;19931;-76
2021/05/16 01:23:46;;;;;;;;;;;9.20;99.90;;;;;;5036018;28;19967;-76
2021/05/16 01:26:13;;;;;;;;;;;9.30;99.90;;;;;;5035713;28;20407;-76
2021/05/16 01:28:42;;;;;;;;;;;9.20;99.90;;;;;;5035796;28;20018;-75
2021/05/16 01:31:08;;;;;;;;;;;9.20;99.90;;;;;;5035860;28;19921;-75
2021/05/16 01:33:34;;;;;;;;;;;9.10;99.90;;;;;;5035943;28;19921;-75
2021/05/16 01:36:01;;;;;;;;;;;9.10;99.90;;;;;;5035706;28;19936;-75
2021/05/16 01:38:28;;;;;;;;;;;9.10;99.90;;;;;;5035524;28;19921;-75
2021/05/16 01:40:54;;;;;;;;;;;9.00;99.90;;;;;;5035531;28;19921;-75
2021/05/16 01:43:21;;;;;;;;;;;9.00;99.90;;;;;;5035591;28;19929;-75
2021/05/16 01:45:47;;;;;;;;;;;8.90;99.90;;;;;;5034772;28;20353;-75
2021/05/16 01:48:13;;;;;;;;;;;8.90;99.90;;;;;;5035636;28;19931;-75
2021/05/16 01:50:40;;;;;;;;;;;8.80;99.90;;;;;;5035774;28;19921;-75
2021/05/16 01:53:07;;;;;;;;;;;8.80;99.90;;;;;;5035549;28;19943;-75
2021/05/16 01:55:34;;;;;;;;;;;8.70;99.90;;;;;;5035562;28;19928;-75
2021/05/16 01:58:00;;;;;;;;;;;8.70;99.90;;;;;;5035469;28;19925;-75
2021/05/16 02:00:27;;;;;;;;;;;8.70;99.90;;;;;;5035184;28;19921;-75
2021/05/16 02:02:53;;;;;;;;;;;8.60;99.90;;;;;;5035159;28;19931;-75
2021/05/16 02:05:20;;;;;;;;;;;8.70;99.90;;;;;;5035057;28;19920;-75
2021/05/16 02:07:47;;;;;;;;;;;8.60;99.90;;;;;;5035025;28;19932;-75
2021/05/16 02:10:13;;;;;;;;;;;8.60;99.90;;;;;;5035204;28;19929;-75
2021/05/16 02:12:40;;;;;;;;;;;8.60;99.90;;;;;;5035209;28;19921;-75
2021/05/16 02:15:08;;;;;;;;;;;8.50;99.90;;;;;;5035254;28;19920;-75
2021/05/16 02:17:34;;;;;;;;;;;8.50;99.90;;;;;;5035262;28;20258;-75
2021/05/16 02:20:01;;;;;;;;;;;8.50;99.90;;;;;;5034903;28;19925;-75
2021/05/16 02:22:27;;;;;;;;;;;8.50;99.90;;;;;;5035223;28;19921;-75
2021/05/16 02:24:53;;;;;;;;;;;8.50;99.90;;;;;;5035170;28;19921;-75
2021/05/16 02:27:20;;;;;;;;;;;8.40;99.90;;;;;;5035248;28;19921;-75
2021/05/16 02:29:47;;;;;;;;;;;8.40;99.90;;;;;;5035255;28;19964;-75
2021/05/16 02:32:13;;;;;;;;;;;8.40;99.90;;;;;;5034976;28;19921;-75
2021/05/16 02:34:40;;;;;;;;;;;8.40;99.90;;;;;;5033862;28;19921;-75
2021/05/16 02:37:06;;;;;;;;;;;8.40;99.90;;;;;;5035149;28;19929;-75
2021/05/16 02:39:33;;;;;;;;;;;8.40;99.90;;;;;;5035161;28;20402;-75
2021/05/16 02:41:59;;;;;;;;;;;8.30;99.90;;;;;;5035446;28;19933;-75
2021/05/16 02:44:28;;;;;;;;;;;8.30;99.90;;;;;;5035107;28;19928;-75
2021/05/16 02:46:55;;;;;;;;;;;8.30;99.90;;;;;;5034980;28;19983;-75
2021/05/16 02:49:22;;;;;;;;;;;8.30;99.90;;;;;;5035144;28;20334;-75
2021/05/16 02:51:48;;;;;;;;;;;8.30;99.90;;;;;;5035062;28;20310;-75
2021/05/16 02:54:15;;;;;;;;;;;8.30;99.90;;;;;;5035089;28;19932;-75
2021/05/16 02:56:41;;;;;;;;;;;8.40;99.90;;;;;;5036043;28;19925;-74
2021/05/16 02:59:07;;;;;;;;;;;8.40;99.90;;;;;;5038589;28;19931;-75
2021/05/16 03:01:34;;;;;;;;;;;8.40;99.90;;;;;;5038631;28;19920;-75
2021/05/16 03:04:01;;;;;;;;;;;8.40;99.90;;;;;;5038518;28;20362;-75
2021/05/16 03:06:27;;;;;;;;;;;8.40;99.90;;;;;;5038850;28;19920;-75
2021/05/16 03:08:54;;;;;;;;;;;8.40;99.90;;;;;;5038803;28;19929;-75
2021/05/16 03:11:20;;;;;;;;;;;8.40;99.90;;;;;;5038545;28;19927;-75
2021/05/16 03:13:46;;;;;;;;;;;8.40;99.90;;;;;;5038765;28;19944;-75
2021/05/16 03:16:13;;;;;;;;;;;8.40;99.90;;;;;;5038788;28;19921;-75
2021/05/16 03:18:39;;;;;;;;;;;8.40;99.90;;;;;;5038656;28;19925;-75
2021/05/16 03:21:06;;;;;;;;;;;8.40;99.90;;;;;;5038662;28;19931;-75
2021/05/16 03:23:32;;;;;;;;;;;8.30;99.90;;;;;;5038546;28;20011;-75
2021/05/16 03:26:01;;;;;;;;;;;8.30;99.90;;;;;;5038348;28;20018;-75
2021/05/16 03:28:27;;;;;;;;;;;8.30;99.90;;;;;;5038181;28;20346;-75
2021/05/16 03:30:54;;;;;;;;;;;8.30;99.90;;;;;;5038131;28;19921;-75
2021/05/16 03:33:20;;;;;;;;;;;8.30;99.90;;;;;;5038203;28;19921;-75
2021/05/16 03:35:46;;;;;;;;;;;8.20;99.90;;;;;;5038264;28;19921;-75
2021/05/16 03:38:14;;;;;;;;;;;8.20;99.90;;;;;;5038334;28;19921;-75
2021/05/16 03:40:40;;;;;;;;;;;8.20;99.90;;;;;;5038196;28;19931;-75
2021/05/16 03:43:06;;;;;;;;;;;8.20;99.90;;;;;;5038200;28;19921;-75
2021/05/16 03:45:33;;;;;;;;;;;8.20;99.90;;;;;;5037855;28;19921;-75
2021/05/16 03:47:59;;;;;;;;;;;8.20;99.90;;;;;;5037937;28;19921;-75
2021/05/16 03:50:26;;;;;;;;;;;8.20;99.90;;;;;;5037853;28;20380;-75
2021/05/16 03:52:52;;;;;;;;;;;8.20;99.90;;;;;;5037685;28;20363;-75
2021/05/16 03:55:21;;;;;;;;;;;8.20;99.90;;;;;;5037702;28;20351;-75
2021/05/16 03:57:49;;;;;;;;;;;8.20;99.90;;;;;;5038010;28;19932;-75
2021/05/16 04:00:16;;;;;;;;;;;8.30;99.90;;;;;;5037913;28;20261;-75
2021/05/16 04:02:42;;;;;;;;;;;8.30;99.90;;;;;;5037876;28;19995;-75
2021/05/16 04:05:09;;;;;;;;;;;8.30;99.90;;;;;;5037791;28;19921;-75
2021/05/16 04:07:35;;;;;;;;;;;8.30;99.90;;;;;;5037236;28;19931;-75
2021/05/16 04:10:01;;;;;;;;;;;8.30;99.90;;;;;;5037369;28;19925;-75
2021/05/16 04:12:29;;;;;;;;;;;8.30;99.90;;;;;;5037369;28;19982;-75
2021/05/16 04:14:55;;;;;;;;;;;8.30;99.90;;;;;;5037366;28;19927;-75
2021/05/16 04:17:21;;;;;;;;;;;8.40;99.90;;;;;;5037327;28;19928;-75
2021/05/16 04:19:48;;;;;;;;;;;8.30;99.90;;;;;;5037345;28;19923;-75
2021/05/16 04:22:14;;;;;;;;;;;8.30;99.90;;;;;;5037209;28;20349;-75
2021/05/16 04:24:40;;;;;;;;;;;8.30;99.90;;;;;;5037139;28;20296;-75
2021/05/16 04:27:07;;;;;;;;;;;8.30;99.90;;;;;;5037458;28;19931;-75
2021/05/16 04:29:34;;;;;;;;;;;8.30;99.90;;;;;;5036994;28;19931;-75
2021/05/16 04:32:00;;;;;;;;;;;8.30;99.90;;;;;;5036927;28;19931;-75
2021/05/16 04:34:27;;;;;;;;;;;8.20;99.90;;;;;;5036936;28;19922;-75
2021/05/16 04:36:53;;;;;;;;;;;8.20;99.90;;;;;;5036748;28;19986;-76
2021/05/16 04:39:19;;;;;;;;;;;8.30;99.90;;;;;;5036919;28;19936;-75
2021/05/16 04:41:46;;;;;;;;;;;8.30;99.90;;;;;;5036897;28;19920;-75
2021/05/16 04:44:12;;;;;;;;;;;8.30;99.90;;;;;;5036762;28;19925;-75
2021/05/16 04:46:39;;;;;;;;;;;8.30;99.90;;;;;;5036787;28;19932;-75
2021/05/16 04:49:06;;;;;;;;;;;8.40;99.90;;;;;;5036854;28;19939;-75
2021/05/16 04:51:32;;;;;;;;;;;8.40;99.90;;;;;;5036592;28;19929;-75
2021/05/16 04:53:59;;;;;;;;;;;8.40;99.90;;;;;;5036721;28;19921;-75
2021/05/16 04:56:26;;;;;;;;;;;8.40;99.90;;;;;;5036580;28;20261;-75
2021/05/16 04:58:52;;;;;;;;;;;8.40;99.90;;;;;;5036713;28;19935;-75
2021/05/16 05:01:18;;;;;;;;;;;8.40;99.90;;;;;;5036584;28;19921;-75
2021/05/16 05:03:46;;;;;;;;;;;8.50;99.90;;;;;;5036488;28;19931;-75
2021/05/16 05:06:12;;;;;;;;;;;8.60;99.90;;;;;;5036414;28;19925;-75
2021/05/16 05:08:38;;;;;;;;;;;8.60;99.90;;;;;;5036589;28;19927;-75
2021/05/16 05:11:05;;;;;;;;;;;8.70;99.90;;;;;;5036231;28;19925;-75
2021/05/16 05:13:31;;;;;;;;;;;8.70;99.90;;;;;;5036174;28;19920;-75
2021/05/16 05:15:57;;;;;;;;;;;8.80;99.90;;;;;;5036151;28;19931;-76
2021/05/16 05:18:24;;;;;;;;;;;8.90;99.90;;;;;;5035876;28;19921;-75
2021/05/16 05:20:51;;;;;;;;;;;8.90;99.90;;;;;;5035789;28;19929;-75
2021/05/16 05:23:18;;;;;;;;;;;9.00;99.90;;;;;;5036141;28;20015;-75
2021/05/16 05:25:44;;;;;;;;;;;9.00;99.90;;;;;;5035997;28;19943;-75
2021/05/16 05:28:10;;;;;;;;;;;9.10;99.90;;;;;;5036096;28;19925;-75
2021/05/16 05:30:37;;;;;;;;;;;9.10;99.90;;;;;;5036042;28;19939;-75
2021/05/16 05:33:03;;;;;;;;;;;9.20;99.90;;;;;;5035786;28;20402;-76
2021/05/16 05:35:29;;;;;;;;;;;9.30;99.90;;;;;;5036091;28;19921;-75
2021/05/16 05:37:56;;;;;;;;;;;9.30;99.90;;;;;;5036070;28;19921;-75
2021/05/16 05:40:23;;;;;;;;;;;9.40;99.90;;;;;;5036097;28;19921;-75
2021/05/16 05:42:49;;;;;;;;;;;9.40;99.90;;;;;;5035965;28;19931;-75
2021/05/16 05:45:16;;;;;;;;;;;9.50;99.90;;;;;;5035512;28;20288;-75
2021/05/16 05:47:42;;;;;;;;;;;9.50;99.90;;;;;;5035817;28;19947;-75
2021/05/16 05:50:09;;;;;;;;;;;9.50;99.90;;;;;;5035964;28;19972;-75
2021/05/16 05:52:35;;;;;;;;;;;9.60;99.90;;;;;;5035519;28;19921;-75
2021/05/16 05:55:02;;;;;;;;;;;9.60;99.90;;;;;;5035444;28;20353;-75
2021/05/16 05:57:29;;;;;;;;;;;9.60;99.90;;;;;;5035559;28;19928;-75
2021/05/16 05:59:55;;;;;;;;;;;9.70;99.90;;;;;;5035477;28;19925;-75
2021/05/16 06:02:21;;;;;;;;;;;9.70;99.90;;;;;;5035372;28;19931;-75
2021/05/16 06:04:48;;;;;;;;;;;9.80;99.90;;;;;;5035349;28;19927;-75
2021/05/16 06:07:14;;;;;;;;;;;9.90;99.90;;;;;;5035501;28;19921;-76
2021/05/16 06:09:40;;;;;;;;;;;9.90;99.90;;;;;;5035330;28;19927;-75
2021/05/16 06:12:09;;;;;;;;;;;10.00;99.90;;;;;;5035258;28;19921;-75
2021/05/16 06:14:36;;;;;;;;;;;10.10;99.90;;;;;;5035498;28;19931;-76
2021/05/16 06:17:02;;;;;;;;;;;10.20;99.90;;;;;;5035188;28;19925;-76
2021/05/16 06:19:28;;;;;;;;;;;10.30;99.90;;;;;;5035086;28;19920;-77
2021/05/16 06:21:55;;;;;;;;;;;10.30;99.90;;;;;;5035167;28;19921;-76
2021/05/16 06:24:21;;;;;;;;;;;10.40;99.90;;;;;;5035049;28;19931;-76
2021/05/16 06:26:47;;;;;;;;;;;10.50;99.90;;;;;;5035073;28;20296;-76
2021/05/16 06:29:14;;;;;;;;;;;10.60;99.90;;;;;;5035131;28;19947;-75
2021/05/16 06:31:41;;;;;;;;;;;10.80;99.90;;;;;;5035047;28;20261;-75
2021/05/16 06:34:07;;;;;;;;;;;11.10;99.90;;;;;;5035312;28;19982;-76
2021/05/16 06:36:34;;;;;;;;;;;11.40;99.90;;;;;;5035223;28;19921;-76
2021/05/16 06:39:00;;;;;;;;;;;11.60;99.90;;;;;;5034895;28;19954;-76
2021/05/16 06:41:27;;;;;;;;;;;11.70;99.90;;;;;;5034842;28;20016;-75
2021/05/16 06:43:54;;;;;;;;;;;12.00;99.90;;;;;;5035098;28;19929;-76
2021/05/16 06:46:21;;;;;;;;;;;13.50;99.90;;;;;;5034894;28;20016;-73
2021/05/16 06:48:47;;;;;;;;;;;16.00;99.90;;;;;;5034862;28;19921;-73
2021/05/16 06:51:14;;;;;;;3.13;0.67;;;18.60;99.90;;;;;;5033899;28;20482;-73
2021/05/16 06:53:40;;;;;;;3.40;0.47;;;20.80;99.90;;;;;;5034370;28;20386;-73
2021/05/16 06:56:11;;;;;;;2.33;0.40;;;22.70;99.90;;;;;;5034239;28;20049;-73
2021/05/16 06:58:38;;;;;;;0.65;0.43;;;24.20;99.90;;;;;;5034489;28;20045;-75
2021/05/16 07:01:05;;;;;;;3.95;0.80;;;25.10;99.90;;;;;;5034583;28;20045;-76
2021/05/16 07:03:34;;;;;;;2.15;0.35;;;25.70;99.90;;;;;;5034311;28;20488;-76
2021/05/16 07:06:01;;;;;;;5.13;0.77;;;26.20;99.90;;;;;;5034617;28;20060;-76
2021/05/16 07:08:27;;;;;;;2.05;0.60;;;26.40;99.90;;;;;;5034137;28;20061;-76
2021/05/16 07:10:54;;;;;;;0.20;0.10;;;25.80;90.30;;;;;;5034506;28;20064;-76
2021/05/16 07:13:21;;;;;;;2.17;0.57;;;25.70;99.60;;;;;;5034168;28;20469;-76
2021/05/16 07:15:47;;;;;;;3.80;0.68;;;26.40;99.60;;;;;;5034498;28;20064;-76
2021/05/16 07:18:14;;;;;;;1.58;0.38;;;27.00;96.10;;;;;;5034063;28;20053;-76
2021/05/16 07:20:42;;;;;;;4.03;0.70;;;28.00;96.40;;;;;;5034124;28;20052;-77
2021/05/16 07:23:08;;;;;;;8.02;0.90;;;28.50;78.40;;;;;;5034106;28;20374;-77
2021/05/16 07:25:35;;;;;;;1.95;0.82;;;27.30;68.00;;;;;;5034427;28;20049;-76
2021/05/16 07:28:01;;;;;;;1.85;0.75;;;25.70;92.30;;;;;;5034001;28;20075;-76
2021/05/16 07:30:28;;;;;;;3.40;0.65;;;24.20;95.10;;;;;;5034186;28;20053;-76
2021/05/16 07:32:54;;;;;;;1.88;0.47;;;23.00;99.90;;;;;;5033908;28;20049;-76
2021/05/16 07:35:21;;;;;;;3.90;0.63;;;22.70;99.90;;;;;;5034095;28;20420;-76
2021/05/16 07:37:49;;;;;;;2.90;0.43;;;23.80;99.90;;;;;;5034319;28;20059;-76
2021/05/16 07:40:15;;;;;;;1.70;0.40;;;25.00;96.30;;;;;;5033923;28;20050;-76
2021/05/16 07:42:42;;;;;;;4.47;0.98;;;24.10;91.50;;;;;;5035602;28;20051;-76
2021/05/16 07:45:10;;;;;;;1.38;0.60;;;24.10;95.80;;;;;;5037634;28;20119;-76
2021/05/16 07:47:37;;;;;;;4.05;0.75;;;25.60;94.70;;;;;;5037360;28;20067;-76
2021/05/16 07:50:05;;;;;;;4.95;0.73;;;26.60;68.90;;;;;;5037453;28;20462;-76
2021/05/16 07:52:32;;;;;;;3.13;0.43;;;25.40;70.70;;;;;;5037534;28;20128;-76
2021/05/16 07:54:59;;;;;;;5.43;0.77;;;23.40;86.40;;;;;;5037620;28;20139;-76
2021/05/16 07:57:26;;;;;;;3.58;0.75;;;21.80;98.10;;;;;;5037634;28;20049;-76
2021/05/16 07:59:52;;;;;;;1.95;0.35;;;22.20;99.90;;;;;;5037178;28;20480;-76
2021/05/16 08:02:20;;;;;;;1.85;0.32;;;24.10;93.00;;;;;;5037540;28;20045;-76
2021/05/16 08:04:46;;;;;;;2.53;0.85;;;25.60;71.20;;;;;;5037188;28;20057;-76
2021/05/16 08:07:13;;;;;;;3.28;0.50;;;25.30;71.60;;;;;;5037101;28;20061;-76
2021/05/16 08:09:39;;;;;;;2.20;0.47;;;23.60;79.50;;;;;;5037044;28;20045;-76
2021/05/16 08:12:07;;;;;;;4.82;0.70;;;21.80;93.10;;;;;;5037324;28;20055;-76
2021/05/16 08:14:34;;;;;;;0.98;0.50;;;21.10;98.80;;;;;;5036966;28;20045;-76
2021/05/16 08:17:02;;;;;;;2.13;0.80;;;20.20;99.90;;;;;;5036957;28;20424;-76
2021/05/16 08:19:29;;;;;;;2.97;0.50;;;19.50;99.90;;;;;;5036891;28;20050;-76
2021/05/16 08:21:56;;;;;;;2.30;0.40;;;18.80;99.90;;;;;;5036783;28;20045;-76
2021/05/16 08:24:22;;;;;;;3.70;0.77;;;18.30;99.90;;;;;;5036770;28;20057;-76
2021/05/16 08:26:49;;;;;;;2.40;0.50;;;17.90;99.90;;;;;;5036769;28;20046;-76
2021/05/16 08:29:16;;;;;;;4.40;0.55;;;17.40;99.90;;;;;;5036676;28;20136;-76
2021/05/16 08:31:43;;;;;;;2.22;0.50;;;17.00;99.90;;;;;;5036892;28;20063;-76
2021/05/16 08:34:10;;;;;;;3.85;1.05;;;16.70;99.90;;;;;;5036655;28;20053;-76
2021/05/16 08:36:38;;;;;;;1.08;0.30;;;16.60;99.90;;;;;;5037158;28;20050;-76
2021/05/16 08:39:05;;;;;;;10.82;1.80;;;16.40;99.90;;;;;;5036887;28;20049;-76
2021/05/16 08:41:32;;;;;;;2.05;0.52;;;16.20;99.90;;;;;;5036465;28;20042;-76
2021/05/16 08:43:59;;;;;;;4.20;1.00;;;16.00;99.90;;;;;;5036366;28;20053;-75
2021/05/16 08:46:27;;;;;;;2.22;0.35;;;15.90;99.90;;;;;;5036306;28;20067;-76
2021/05/16 08:48:53;;;;;;;6.13;0.50;;;15.80;99.90;;;;;;5036200;28;20063;-76
2021/05/16 08:51:20;;;;;;;1.88;0.50;;;15.70;99.90;;;;;;5035607;28;20412;-76
2021/05/16 08:53:46;;;;;;;4.57;0.90;;;15.50;99.90;;;;;;5034755;28;20045;-76
2021/05/16 08:56:13;;;;;;;2.55;0.43;;;15.40;99.90;;;;;;5036125;28;20061;-76
2021/05/16 08:58:39;;;;;;;;;;;15.30;99.90;;;;;;5036691;28;20132;-74
2021/05/16 09:01:21;;;;;;;;;;;15.20;99.90;;;;;;5036686;28;19921;-74
2021/05/16 09:03:48;;;;;;;;;;;15.20;99.90;;;;;;5033370;28;19921;-74
2021/05/16 09:06:15;;;;;;;;;;;15.20;99.90;;;;;;5036725;28;19932;-74
2021/05/16 09:08:41;;;;;;;;;;;15.30;99.90;;;;;;5036740;28;19960;-74
2021/05/16 09:11:08;;;;;;;;;;;15.40;99.90;;;;;;5036643;28;19921;-74
2021/05/16 09:13:34;;;;;;;;;;;15.50;99.90;;;;;;5036373;28;19920;-74
2021/05/16 09:16:01;;;;;;;;;;;15.60;99.90;;;;;;5036318;28;20285;-74
2021/05/16 09:18:31;;;;;;;;;;;15.60;99.90;;;;;;5036187;28;19939;-74
2021/05/16 09:21:13;;;;;;;;;;;15.70;99.90;;;;;;5036427;28;19929;-74
2021/05/16 09:23:40;;;;;;;;;;;15.70;99.90;;;;;;5036481;28;19921;-74
2021/05/16 09:26:11;;;;;;;;;;;15.70;99.90;;;;;;5036196;28;19921;-74
2021/05/16 09:28:37;;;;;;;;;;;15.60;99.90;;;;;;5036035;28;19974;-74
2021/05/16 09:31:06;;;;;;;;;;;15.60;99.90;;;;;;5035990;28;19921;-74
2021/05/16 09:33:33;;;;;;;;;;;15.60;99.90;;;;;;5036014;28;19931;-74
2021/05/16 09:35:59;;;;;;;;;;;15.50;99.90;;;;;;5036178;28;19921;-74
2021/05/16 09:38:25;;;;;;;;;;;15.50;99.90;;;;;;5035781;28;20011;-74
2021/05/16 10:25:45;;;;;;;;;;;14.50;99.90;;;;;;5092894;27;19916;-76
2021/05/16 10:28:11;;;;;;;;;;;14.30;99.90;;;;;;5092427;28;20027;-78
2021/05/16 10:30:38;;;;;;;;;;;14.30;99.90;;;;;;5092481;28;19990;-76
2021/05/16 10:33:06;;;;;;;;;;;14.40;99.90;;;;;;5092377;28;19929;-76
2021/05/16 10:35:46;;;;;;;;;;;14.70;99.90;;;;;;5091283;28;20333;-75
2021/05/16 10:38:20;;;;;;;;;;;14.90;99.90;;;;;;5091172;28;19943;-76
2021/05/16 10:40:47;;;;;;;;;;;14.90;99.90;;;;;;5092008;28;19924;-75
2021/05/16 10:43:26;;;;;;;;;;;14.90;99.90;;;;;;5092394;28;19932;-74
2021/05/16 10:45:52;;;;;;;;;;;14.90;99.90;;;;;;5092190;28;19931;-74
2021/05/16 10:48:20;;;;;;;;;;;15.00;99.90;;;;;;5091982;28;19935;-75
2021/05/16 10:50:57;;;;;;;;;;;15.00;99.90;;;;;;5092135;28;19924;-74
2021/05/16 10:53:26;;;;;;;;;;;15.00;99.90;;;;;;5092258;28;19967;-74
2021/05/16 10:55:53;;;;;;;;;;;15.00;99.90;;;;;;5091951;28;19924;-74
2021/05/16 10:58:39;;;;;;;;;;;14.90;99.90;;;;;;5092042;28;19995;-74
2021/05/16 11:01:05;;;;;;;;;;;14.90;99.90;;;;;;5091994;28;20261;-74
2021/05/16 11:03:44;;;;;;;;;;;14.90;99.90;;;;;;5091877;28;20265;-74
2021/05/16 11:06:11;;;;;;;;;;;15.10;99.90;;;;;;5091671;28;19925;-74
2021/05/16 11:09:11;;;;;;;2.25;0.45;;;15.40;99.90;;;;;;5090571;28;20407;-73
2021/05/16 11:11:43;;;;;;;1.55;0.35;;;15.40;99.90;;;;;;5091127;28;20051;-73
2021/05/16 11:14:14;;;;;;;3.25;0.40;;;15.50;99.90;;;;;;5090996;28;20469;-73
2021/05/16 11:16:48;;;;;;;0.35;0.13;;;15.70;99.90;;;;;;5091187;28;20078;-73
2021/05/16 11:19:15;;;;;;;2.38;0.75;;;15.70;99.90;;;;;;5091130;28;20056;-74
2021/05/16 11:21:41;;;;;;;1.65;0.25;;;15.80;99.90;;;;;;5090893;28;20048;-73
2021/05/16 11:24:08;;;;;;;;;;;15.80;99.90;;;;;;5091229;28;20239;-74
2021/05/16 11:26:34;;;;;;;;;;;15.80;99.90;;;;;;5078352;28;19932;-73
2021/05/16 11:29:02;;;;;;;;;;;15.80;99.90;;;;;;5077647;28;19949;-74
2021/05/16 11:31:29;;;;;;;;;;;15.70;99.90;;;;;;5077901;28;20011;-74
2021/05/16 11:33:56;;;;;;;;;;;15.60;99.90;;;;;;5077705;28;19931;-74
2021/05/16 11:36:23;;;;;;;;;;;15.60;99.90;;;;;;5077665;28;19920;-73
2021/05/16 11:38:53;;;;;;;;;;;15.60;99.90;;;;;;5077506;28;20273;-74
2021/05/16 11:41:26;;;;;;;;;;;15.70;99.90;;;;;;5077779;28;19970;-74
2021/05/16 11:43:52;;;;;;;;;;;15.70;99.90;;;;;;5077709;28;19920;-74
2021/05/16 11:46:24;;;;;;;;;;;15.70;99.90;;;;;;5077709;28;19921;-74
2021/05/16 11:48:50;;;;;;;;;;;15.70;99.90;;;;;;5077637;28;19921;-74
2021/05/16 11:51:17;;;;;;;;;;;15.70;99.90;;;;;;5077585;28;19920;-74
2021/05/16 11:53:43;;;;;;;;;;;15.80;99.90;;;;;;5077116;28;19920;-74
2021/05/16 11:56:10;;;;;;;;;;;15.80;99.90;;;;;;5077229;28;19920;-74
2021/05/16 11:58:37;;;;;;;;;;;16.00;99.90;;;;;;5077354;28;20421;-73
2021/05/16 12:01:09;;;;;;;;;;;16.10;99.90;;;;;;5077364;28;20030;-74
2021/05/16 12:03:36;;;;;;;;;;;16.20;99.90;;;;;;5077096;28;19932;-74
2021/05/16 12:06:06;;;;;;;;;;;16.40;99.90;;;;;;5077372;28;19920;-73
2021/05/16 12:08:32;;;;;;;;;;;16.40;99.30;;;;;;5076998;28;19921;-73
2021/05/16 12:11:08;;;;;;;;;;;16.40;99.90;;;;;;5076910;28;19954;-73
2021/05/16 12:13:34;;;;;;;;;;;16.40;99.90;;;;;;5077059;28;19922;-74
2021/05/16 12:16:17;;;;;;;;;;;16.50;99.90;;;;;;5076920;28;19920;-74
2021/05/16 12:18:44;;;;;;;;;;;16.50;99.90;;;;;;5077097;28;20255;-74
2021/05/16 12:21:10;;;;;;;;;;;16.40;99.90;;;;;;5077017;28;19985;-73
2021/05/16 12:23:37;;;;;;;;;;;16.40;99.90;;;;;;5076572;28;19920;-73
2021/05/16 12:26:03;;;;;;;;;;;16.40;99.90;;;;;;5076771;28;19928;-73
2021/05/16 12:28:30;;;;;;;;;;;16.40;99.90;;;;;;5076737;28;19982;-73
2021/05/16 12:30:57;;;;;;;;;;;16.40;99.90;;;;;;5076656;28;19924;-73
2021/05/16 12:33:24;;;;;;;;;;;16.40;99.90;;;;;;5076451;28;19975;-73
2021/05/16 12:35:51;;;;;;;;;;;16.30;99.90;;;;;;5076697;28;19920;-73
2021/05/16 12:38:18;;;;;;;;;;;16.20;99.90;;;;;;5075743;28;19939;-73
2021/05/16 12:40:44;;;;;;;2.20;0.30;;;16.10;97.60;;;;;;5074981;28;20415;-73
2021/05/16 12:43:13;;;;;;;;;;;16.00;99.90;;;;;;5076145;28;20094;-73
2021/05/16 12:45:39;;;;;;;;;;;16.00;99.90;;;;;;5076201;28;19985;-73
2021/05/16 12:48:06;;;;;;;;;;;15.90;99.90;;;;;;5076125;28;19920;-73
2021/05/16 12:50:33;;;;;;;;;;;15.90;99.90;;;;;;5076176;28;20327;-73
2021/05/16 12:53:23;;;;;;;;;;;15.90;99.90;;;;;;5075982;28;19930;-74
2021/05/16 12:55:50;;;;;;;;;;;15.80;99.90;;;;;;5076114;28;19920;-74
2021/05/16 12:58:17;;;;;;;;;;;15.80;99.90;;;;;;5076218;28;19967;-73
2021/05/16 13:00:50;;;;;;;;;;;15.70;99.90;;;;;;5076101;28;19920;-73
2021/05/16 13:03:16;;;;;;;;;;;15.80;99.90;;;;;;5075989;28;20017;-73
2021/05/16 13:05:46;;;;;;;;;;;16.00;99.90;;;;;;5075886;28;19920;-74
2021/05/16 13:08:14;;;;;;;;;;;16.20;99.90;;;;;;5076009;28;19928;-72
2021/05/16 13:10:42;;;;;;;;;;;16.40;99.90;;;;;;5075652;28;19970;-71
2021/05/16 13:13:09;;;;;;;;;;;16.60;99.90;;;;;;5075883;28;20280;-81
2021/05/16 13:15:36;;;;;;;;;;;16.80;99.90;;;;;;5075777;28;20359;-73
2021/05/16 13:18:17;;;;;;;;;;;16.90;99.90;;;;;;5075534;28;19921;-76
2021/05/16 13:20:43;;;;;;;;;;;17.00;99.90;;;;;;5075128;28;19924;-78
2021/05/16 13:23:17;;;;;;;;;;;17.10;99.80;;;;;;5075296;28;19920;-81
2021/05/16 13:25:45;;;;;;;;;;;17.10;98.70;;;;;;5075541;28;19969;-80
2021/05/16 13:28:15;;;;;;;;;;;17.10;97.00;;;;;;5075522;28;19927;-81
2021/05/16 13:30:41;;;;;;;;;;;17.00;95.30;;;;;;5075440;28;20360;-81
2021/05/16 13:33:10;;;;;;;;;;;16.90;94.40;;;;;;5075391;28;19928;-81
2021/05/16 13:35:37;;;;;;;;;;;16.80;96.60;;;;;;5075239;28;19940;-81
2021/05/16 13:38:03;;;;;;;;;;;16.70;99.40;;;;;;5075325;28;19927;-81
2021/05/16 13:40:29;;;;;;;;;;;16.50;95.00;;;;;;5075396;28;19946;-81
2021/05/16 13:42:57;;;;;;;;;;;16.40;95.10;;;;;;5075508;28;19932;-88
2021/05/16 13:45:23;;;;;;;;;;;16.40;97.10;;;;;;5075459;28;20011;-80
2021/05/16 13:47:50;;;;;;;;;;;16.30;99.30;;;;;;5075395;28;19957;-81
2021/05/16 13:50:16;;;;;;;;;;;16.20;99.90;;;;;;5075204;28;19970;-79
2021/05/16 13:52:44;;;;;;;;;;;16.10;99.90;;;;;;5075189;28;19921;-80
2021/05/16 13:55:10;;;;;;;;;;;16.00;99.90;;;;;;5075357;28;20018;-82
2021/05/16 13:57:37;;;;;;;;;;;16.00;99.90;;;;;;5075295;28;19950;-78
2021/05/16 14:00:05;;;;;;;;;;;15.90;99.90;;;;;;5075128;28;19921;-78
2021/05/16 14:02:31;;;;;;;;;;;15.90;99.90;;;;;;5075156;28;19920;-79
2021/05/16 14:04:59;;;;;;;;;;;15.90;99.90;;;;;;5075066;28;19924;-78
2021/05/16 14:07:25;;;;;;;;;;;15.80;99.90;;;;;;5075014;28;19935;-74
2021/05/16 14:09:51;;;;;;;;;;;15.80;99.90;;;;;;5074911;28;19927;-70
2021/05/16 14:12:18;;;;;;;;;;;15.80;99.90;;;;;;5075042;28;19934;-71
2021/05/16 14:14:44;;;;;;;;;;;15.80;99.90;;;;;;5074907;28;19930;-71
2021/05/16 14:17:11;;;;;;;;;;;15.90;99.90;;;;;;5074886;28;20027;-71
2021/05/16 14:19:40;;;;;;;;;;;16.00;99.90;;;;;;5074844;28;19920;-71
2021/05/16 14:22:06;;;;;;;;;;;16.10;99.90;;;;;;5074803;28;19920;-71
2021/05/16 14:24:32;;;;;;;;;;;16.20;99.90;;;;;;5074718;28;19928;-75
2021/05/16 14:26:59;;;;;;;;;;;16.30;99.20;;;;;;5074956;28;19920;-74
2021/05/16 14:29:25;;;;;;;;;;;16.40;99.90;;;;;;5075041;28;19924;-75
2021/05/16 14:31:51;;;;;;;;;;;16.50;99.90;;;;;;5074825;28;19928;-75
2021/05/16 14:34:19;;;;;;;;;;;16.70;99.90;;;;;;5074995;28;19924;-75
2021/05/16 14:36:45;;;;;;;;;;;16.80;99.90;;;;;;5074913;28;19930;-74
2021/05/16 14:39:11;;;;;;;;;;;16.80;99.60;;;;;;5074628;28;20257;-75
2021/05/16 14:41:38;;;;;;;;;;;16.80;97.80;;;;;;5074681;28;19920;-75
2021/05/16 14:44:04;;;;;;;;;;;16.80;94.40;;;;;;5074608;28;19920;-75
2021/05/16 14:46:31;;;;;;;;;;;16.80;97.10;;;;;;5074567;28;19921;-75
2021/05/16 14:48:57;;;;;;;;;;;16.90;97.20;;;;;;5074621;28;19921;-75